Time;durP1;ratioP1;P1;durP2;ratioP2;P2;SDS_P1;SDS_P2;PMS_P1;PMS_P2;Temp;Humidity;BMP_temperature;BMP_pressure;BME280_temperature;BME280_humidity;BME280_pressure;Samples;Min_cycle;Max_cycle;Signal;HPM_P1;HPM_P2
2023/08/28 00:02:20;;;;;;;6.03;4.65;;;13.30;99.90;;;;;;5023068;28;20041;-55
2023/08/28 00:04:45;;;;;;;7.60;4.65;;;13.30;99.90;;;;;;5023401;28;20042;-57
2023/08/28 00:07:11;;;;;;;7.32;4.93;;;13.30;99.90;;;;;;5021274;28;20037;-56
2023/08/28 00:09:36;;;;;;;8.02;5.40;;;13.30;99.90;;;;;;5024288;28;20432;-56
2023/08/28 00:12:02;;;;;;;9.02;5.30;;;13.30;99.90;;;;;;5022131;28;20455;-54
2023/08/28 00:14:28;;;;;;;14.63;5.38;;;13.30;99.90;;;;;;5023403;28;20083;-57
2023/08/28 00:16:54;;;;;;;7.88;5.13;;;13.40;99.90;;;;;;5023527;28;20041;-57
2023/08/28 00:19:20;;;;;;;12.95;5.45;;;13.40;99.90;;;;;;5013139;28;20029;-57
2023/08/28 00:21:46;;;;;;;7.65;5.55;;;13.40;99.90;;;;;;5023804;28;20393;-55
2023/08/28 00:24:11;;;;;;;10.38;5.65;;;13.30;99.90;;;;;;5008527;28;20036;-55
2023/08/28 00:26:37;;;;;;;8.15;5.28;;;13.20;99.90;;;;;;5020308;28;20507;-57
2023/08/28 00:29:02;;;;;;;9.35;5.85;;;13.20;99.90;;;;;;5017238;28;20104;-56
2023/08/28 00:31:28;;;;;;;11.70;6.07;;;13.20;99.90;;;;;;5017892;28;20144;-56
2023/08/28 00:33:54;;;;;;;9.00;6.07;;;13.30;99.90;;;;;;5022638;28;20132;-56
2023/08/28 00:36:20;;;;;;;9.75;6.10;;;13.30;99.90;;;;;;5018991;28;20030;-55
2023/08/28 00:38:45;;;;;;;8.30;6.00;;;13.30;99.90;;;;;;5022929;28;20165;-56
2023/08/28 00:41:11;;;;;;;10.25;6.15;;;13.20;99.90;;;;;;5021712;28;20559;-57
2023/08/28 00:43:37;;;;;;;7.88;5.43;;;13.30;99.90;;;;;;5022996;28;20076;-57
2023/08/28 00:46:04;;;;;;;10.40;6.38;;;13.30;99.90;;;;;;5021974;28;20133;-57
2023/08/28 00:48:31;;;;;;;9.50;6.72;;;13.10;99.90;;;;;;5022102;28;20136;-57
2023/08/28 00:50:58;;;;;;;10.60;6.55;;;13.20;99.90;;;;;;5022122;28;20037;-56
2023/08/28 00:53:24;;;;;;;7.78;6.00;;;13.20;99.90;;;;;;5021916;28;20667;-56
2023/08/28 00:55:50;;;;;;;12.55;6.88;;;13.20;99.90;;;;;;5022492;28;20033;-56
2023/08/28 00:58:16;;;;;;;10.20;6.20;;;13.20;99.90;;;;;;5024578;28;20424;-56
2023/08/28 01:00:41;;;;;;;7.63;6.40;;;13.20;99.90;;;;;;5006921;28;20030;-56
2023/08/28 01:03:07;;;;;;;9.93;6.32;;;13.20;99.90;;;;;;5021291;28;20043;-56
2023/08/28 01:05:45;;;;;;;9.25;6.65;;;13.20;99.90;;;;;;5026747;28;20026;-57
2023/08/28 01:08:25;;;;;;;13.05;6.45;;;13.30;99.90;;;;;;5024959;28;20022;-56
2023/08/28 01:10:58;;;;;;;9.75;6.28;;;13.20;99.90;;;;;;5026445;28;20071;-56
2023/08/28 01:13:36;;;;;;;8.55;6.28;;;13.20;99.90;;;;;;5023361;28;20489;-57
2023/08/28 01:16:02;;;;;;;8.30;6.00;;;13.10;99.90;;;;;;5022665;28;20038;-53
2023/08/28 01:18:28;;;;;;;9.60;6.07;;;13.10;99.90;;;;;;5026065;28;20056;-56
2023/08/28 01:20:55;;;;;;;7.72;5.80;;;13.10;99.90;;;;;;5029236;28;20319;-57
2023/08/28 01:23:31;;;;;;;9.48;6.63;;;12.90;99.90;;;;;;5023983;28;20105;-55
2023/08/28 01:25:58;;;;;;;8.48;6.40;;;13.00;99.90;;;;;;5025148;28;20042;-57
2023/08/28 01:28:27;;;;;;;8.88;6.07;;;12.90;99.90;;;;;;5028051;28;20029;-57
2023/08/28 01:30:53;;;;;;;9.50;6.35;;;13.00;99.90;;;;;;5021220;28;20030;-56
2023/08/28 01:33:19;;;;;;;9.23;5.88;;;12.90;99.90;;;;;;5025066;28;20062;-58
2023/08/28 01:35:50;;;;;;;11.02;5.72;;;13.00;99.90;;;;;;5018531;28;20030;-56
2023/08/28 01:38:21;;;;;;;7.28;5.38;;;13.00;99.90;;;;;;5016594;28;20458;-57
2023/08/28 01:41:07;;;;;;;10.30;6.45;;;13.00;99.90;;;;;;5023345;28;20108;-57
2023/08/28 01:43:38;;;;;;;9.30;6.22;;;12.90;99.90;;;;;;5031648;28;20079;-57
2023/08/28 01:46:05;;;;;;;11.30;6.25;;;12.90;99.90;;;;;;5022538;28;20037;-56
2023/08/28 01:48:34;;;;;;;7.95;6.28;;;13.00;99.90;;;;;;5028352;28;20132;-56
2023/08/28 01:51:00;;;;;;;7.00;5.65;;;13.00;99.90;;;;;;5026051;28;20056;-57
2023/08/28 01:53:26;;;;;;;8.13;6.35;;;12.90;99.90;;;;;;5025059;28;20021;-57
2023/08/28 01:56:07;;;;;;;6.95;6.07;;;12.90;99.90;;;;;;5025814;28;20041;-57
2023/08/28 01:58:37;;;;;;;8.10;6.05;;;12.90;99.90;;;;;;5023205;28;20171;-57
2023/08/28 02:01:03;;;;;;;8.75;6.30;;;12.90;99.90;;;;;;5018906;28;20042;-54
2023/08/28 02:03:30;;;;;;;10.82;6.07;;;12.90;99.90;;;;;;5016091;28;20032;-57
2023/08/28 02:05:55;;;;;;;10.32;6.65;;;12.80;99.90;;;;;;5025309;28;20120;-55
2023/08/28 02:08:21;;;;;;;9.85;6.53;;;12.80;99.90;;;;;;5016202;28;20034;-57
2023/08/28 02:10:47;;;;;;;11.00;6.82;;;12.90;99.90;;;;;;5024356;28;20091;-56
2023/08/28 02:13:12;;;;;;;9.70;6.32;;;12.80;99.90;;;;;;5024201;28;20116;-57
2023/08/28 02:15:39;;;;;;;8.82;6.57;;;12.80;99.90;;;;;;5025249;28;20056;-55
2023/08/28 02:18:04;;;;;;;10.05;6.80;;;12.80;99.90;;;;;;5024644;28;20439;-57
2023/08/28 02:20:30;;;;;;;10.65;6.57;;;12.80;99.90;;;;;;5025288;28;20048;-56
2023/08/28 02:22:56;;;;;;;10.77;6.47;;;12.70;99.90;;;;;;5024856;28;20026;-57
2023/08/28 02:25:23;;;;;;;10.13;6.53;;;12.70;99.90;;;;;;5024806;28;20125;-56
2023/08/28 02:27:49;;;;;;;8.90;6.88;;;12.70;99.90;;;;;;5012978;28;20075;-55
2023/08/28 02:30:15;;;;;;;10.68;6.82;;;12.70;99.90;;;;;;5023358;28;20034;-56
2023/08/28 02:32:41;;;;;;;11.85;6.57;;;12.60;99.90;;;;;;5024411;28;20029;-55
2023/08/28 02:35:08;;;;;;;9.38;7.10;;;12.60;99.90;;;;;;5024295;28;20132;-57
2023/08/28 02:37:33;;;;;;;12.40;7.10;;;12.70;99.90;;;;;;5025229;28;20597;-56
2023/08/28 02:39:59;;;;;;;12.35;6.63;;;12.70;99.90;;;;;;5025485;28;20048;-57
2023/08/28 02:42:25;;;;;;;8.95;6.93;;;12.70;99.90;;;;;;5021318;28;20033;-57
2023/08/28 02:44:50;;;;;;;8.13;6.38;;;12.60;99.90;;;;;;4997183;28;20142;-57
2023/08/28 02:47:16;;;;;;;10.02;6.28;;;12.50;99.90;;;;;;5006050;28;20113;-58
2023/08/28 02:49:42;;;;;;;8.45;6.15;;;12.60;99.90;;;;;;5024523;28;20103;-57
2023/08/28 02:52:07;;;;;;;9.63;6.32;;;12.70;99.90;;;;;;5016426;28;20034;-56
2023/08/28 02:54:33;;;;;;;11.50;6.63;;;12.70;99.90;;;;;;5024873;28;20030;-56
2023/08/28 02:57:00;;;;;;;8.02;6.25;;;12.60;99.90;;;;;;5024356;28;20029;-57
2023/08/28 02:59:27;;;;;;;10.30;6.25;;;12.60;99.90;;;;;;5024094;28;20576;-56
2023/08/28 03:01:53;;;;;;;7.68;6.30;;;12.50;99.90;;;;;;5012246;28;21399;-57
2023/08/28 03:04:19;;;;;;;9.27;6.32;;;12.40;99.90;;;;;;5021626;28;20588;-58
2023/08/28 03:06:44;;;;;;;7.55;6.68;;;12.30;99.90;;;;;;5023576;28;20040;-57
2023/08/28 03:09:12;;;;;;;13.88;7.68;;;12.30;99.90;;;;;;5023212;28;20101;-56
2023/08/28 03:11:38;;;;;;;12.98;8.40;;;12.50;99.90;;;;;;5006889;28;20026;-58
2023/08/28 03:14:04;;;;;;;12.77;8.70;;;12.50;99.90;;;;;;5023014;28;20092;-56
2023/08/28 03:16:29;;;;;;;11.88;8.57;;;12.40;99.90;;;;;;5020980;28;20034;-56
2023/08/28 03:18:55;;;;;;;13.05;10.38;;;12.40;99.90;;;;;;5017316;28;20033;-58
2023/08/28 03:21:21;;;;;;;12.95;11.02;;;12.50;99.90;;;;;;5023670;28;20092;-56
2023/08/28 03:23:46;;;;;;;15.07;11.70;;;12.40;99.90;;;;;;5020628;28;20104;-58
2023/08/28 03:26:12;;;;;;;17.85;10.35;;;12.40;99.90;;;;;;5022907;28;20037;-57
2023/08/28 03:28:38;;;;;;;11.43;10.23;;;12.30;99.90;;;;;;5024764;28;20029;-56
2023/08/28 03:31:03;;;;;;;16.60;10.52;;;12.30;99.90;;;;;;5023563;28;20030;-56
2023/08/28 03:33:29;;;;;;;13.07;11.50;;;12.40;99.90;;;;;;5015212;28;20029;-57
2023/08/28 03:35:55;;;;;;;13.55;10.85;;;12.50;99.90;;;;;;5015701;28;20037;-57
2023/08/28 03:38:21;;;;;;;17.77;11.32;;;12.50;99.90;;;;;;5023097;28;20034;-58
2023/08/28 03:40:46;;;;;;;14.07;11.55;;;12.40;99.90;;;;;;5024113;28;20072;-57
2023/08/28 03:43:12;;;;;;;16.00;12.35;;;12.40;99.90;;;;;;5006181;28;20060;-57
2023/08/28 03:45:38;;;;;;;14.07;12.05;;;12.40;99.90;;;;;;5023396;28;20029;-58
2023/08/28 03:48:05;;;;;;;15.02;11.77;;;12.40;99.90;;;;;;5021868;28;20415;-57
2023/08/28 03:50:31;;;;;;;14.23;11.30;;;12.40;99.90;;;;;;5023654;28;20040;-56
2023/08/28 03:52:57;;;;;;;13.77;12.02;;;12.50;99.90;;;;;;5005556;28;20025;-56
2023/08/28 03:55:23;;;;;;;15.13;12.27;;;12.50;99.90;;;;;;5031338;28;20095;-56
2023/08/28 03:57:52;;;;;;;14.40;11.38;;;12.50;99.90;;;;;;5011806;28;20667;-56
2023/08/28 04:00:18;;;;;;;16.95;12.02;;;12.50;99.90;;;;;;5020442;28;20059;-56
2023/08/28 04:02:47;;;;;;;18.73;12.55;;;12.50;99.90;;;;;;5020061;28;20695;-55
2023/08/28 04:05:13;;;;;;;18.33;12.95;;;12.40;99.90;;;;;;5021877;28;20056;-59
2023/08/28 04:07:40;;;;;;;13.82;11.60;;;12.40;99.90;;;;;;5022837;28;20049;-57
2023/08/28 04:10:06;;;;;;;19.13;12.63;;;12.40;99.90;;;;;;5022503;28;20064;-57
2023/08/28 04:12:32;;;;;;;14.82;11.35;;;12.30;99.90;;;;;;5018886;28;20030;-57
2023/08/28 04:14:58;;;;;;;15.05;11.85;;;12.30;99.90;;;;;;5011948;28;20061;-58
2023/08/28 04:17:24;;;;;;;13.38;11.25;;;12.30;99.90;;;;;;5021183;28;20111;-58
2023/08/28 04:19:51;;;;;;;14.80;11.57;;;12.20;99.90;;;;;;5022048;28;20072;-56
2023/08/28 04:22:18;;;;;;;15.77;11.52;;;12.20;99.90;;;;;;5021610;28;20182;-57
2023/08/28 04:24:45;;;;;;;16.23;11.43;;;12.20;99.90;;;;;;5016610;28;20217;-55
2023/08/28 04:27:12;;;;;;;16.92;11.85;;;12.20;99.90;;;;;;5009417;28;20061;-57
2023/08/28 04:29:38;;;;;;;16.85;11.57;;;12.30;99.90;;;;;;5016992;28;20523;-57
2023/08/28 04:32:04;;;;;;;15.35;11.50;;;12.30;99.90;;;;;;5017820;28;20099;-58
2023/08/28 04:34:30;;;;;;;15.27;11.30;;;12.30;99.90;;;;;;5020088;28;20055;-57
2023/08/28 04:36:55;;;;;;;14.02;11.63;;;12.30;99.90;;;;;;5021527;28;20034;-55
2023/08/28 04:39:23;;;;;;;14.88;11.85;;;12.30;99.90;;;;;;5021914;28;20049;-57
2023/08/28 04:41:49;;;;;;;13.25;11.02;;;12.30;99.90;;;;;;5025220;28;20576;-57
2023/08/28 04:44:14;;;;;;;14.63;11.38;;;12.30;99.90;;;;;;5026154;28;20025;-58
2023/08/28 04:46:40;;;;;;;17.77;11.98;;;12.30;99.90;;;;;;5026391;28;20034;-56
2023/08/28 04:49:06;;;;;;;14.20;11.60;;;12.40;99.90;;;;;;5025095;28;20529;-57
2023/08/28 04:51:31;;;;;;;13.98;12.20;;;12.20;99.90;;;;;;5010935;28;20108;-57
2023/08/28 04:53:57;;;;;;;15.73;11.52;;;12.30;99.90;;;;;;5025945;28;20444;-55
2023/08/28 04:56:22;;;;;;;16.67;12.02;;;12.20;99.90;;;;;;5022436;28;20038;-55
2023/08/28 04:58:48;;;;;;;19.75;12.38;;;12.20;99.90;;;;;;5022247;28;20033;-56
2023/08/28 05:01:13;;;;;;;14.95;11.40;;;12.20;99.90;;;;;;5023338;28;20503;-55
2023/08/28 05:03:39;;;;;;;17.42;12.85;;;12.10;99.90;;;;;;5010031;28;20033;-56
2023/08/28 05:06:05;;;;;;;16.20;11.40;;;12.30;99.90;;;;;;5032787;28;20530;-56
2023/08/28 05:08:30;;;;;;;25.20;13.27;;;12.20;99.90;;;;;;5024173;28;20040;-56
2023/08/28 05:10:56;;;;;;;16.17;12.38;;;12.30;99.90;;;;;;5022027;28;20091;-56
2023/08/28 05:13:22;;;;;;;17.02;12.45;;;12.20;99.90;;;;;;5024296;28;20425;-57
2023/08/28 05:15:47;;;;;;;16.23;12.50;;;12.20;99.90;;;;;;5026369;28;20033;-56
2023/08/28 05:18:14;;;;;;;25.75;13.57;;;12.20;99.90;;;;;;5025284;28;20064;-57
2023/08/28 05:20:40;;;;;;;17.08;12.88;;;12.40;99.90;;;;;;5013976;28;20090;-56
2023/08/28 05:23:06;;;;;;;14.90;11.98;;;12.50;99.90;;;;;;5019350;28;20076;-57
2023/08/28 05:25:31;;;;;;;23.05;14.07;;;12.60;99.90;;;;;;5026171;28;20591;-57
2023/08/28 05:27:57;;;;;;;16.33;13.45;;;12.50;99.90;;;;;;5025640;28;20124;-57
2023/08/28 05:30:23;;;;;;;16.48;13.18;;;12.40;99.90;;;;;;5023100;28;20049;-56
2023/08/28 05:32:49;;;;;;;17.05;13.63;;;12.20;99.90;;;;;;5024105;28;20519;-56
2023/08/28 05:35:14;;;;;;;15.65;12.80;;;12.10;99.90;;;;;;5025162;28;20091;-56
2023/08/28 05:37:40;;;;;;;14.88;12.27;;;12.10;99.90;;;;;;5025686;28;20364;-56
2023/08/28 05:40:06;;;;;;;15.27;12.35;;;12.10;99.90;;;;;;5002745;28;20628;-56
2023/08/28 05:42:32;;;;;;;16.25;12.90;;;12.20;99.90;;;;;;5024111;28;20107;-55
2023/08/28 05:44:58;;;;;;;16.00;13.55;;;12.40;99.90;;;;;;5021417;28;20030;-56
2023/08/28 05:47:23;;;;;;;22.20;14.05;;;12.40;99.90;;;;;;5024496;28;20408;-55
2023/08/28 05:49:49;;;;;;;20.98;14.38;;;12.40;99.90;;;;;;5007785;28;20082;-56
2023/08/28 05:52:14;;;;;;;21.35;15.50;;;12.50;99.90;;;;;;5021854;28;20129;-56
2023/08/28 05:54:40;;;;;;;18.58;14.60;;;12.70;99.90;;;;;;5023438;28;20133;-56
2023/08/28 05:57:05;;;;;;;21.55;15.07;;;12.80;99.90;;;;;;5013154;28;20114;-56
2023/08/28 05:59:31;;;;;;;24.48;19.17;;;12.80;99.90;;;;;;5021808;28;20040;-57
2023/08/28 06:01:57;;;;;;;24.40;17.92;;;13.10;99.90;;;;;;5024552;28;20306;-56
2023/08/28 06:04:23;;;;;;;23.02;17.65;;;13.20;99.90;;;;;;5013640;28;20076;-56
2023/08/28 06:06:48;;;;;;;23.13;17.65;;;13.30;99.90;;;;;;5015709;28;20374;-55
2023/08/28 06:09:14;;;;;;;33.65;21.48;;;13.30;99.90;;;;;;5001955;28;20041;-55
2023/08/28 06:11:41;;;;;;;32.38;21.88;;;13.50;99.90;;;;;;5008818;28;20033;-57
2023/08/28 06:14:07;;;;;;;32.13;19.30;;;13.70;99.90;;;;;;5019079;28;20457;-56
2023/08/28 06:16:33;;;;;;;24.05;17.55;;;13.80;99.90;;;;;;5019308;28;20124;-55
2023/08/28 06:18:59;;;;;;;26.48;20.67;;;13.70;99.90;;;;;;5016429;28;20046;-57
2023/08/28 06:21:24;;;;;;;27.83;17.92;;;13.70;99.90;;;;;;5017833;28;20037;-57
2023/08/28 06:23:50;;;;;;;31.15;21.88;;;13.60;99.90;;;;;;5016535;28;20052;-56
2023/08/28 06:26:15;;;;;;;31.08;21.70;;;13.90;99.90;;;;;;5016224;28;20030;-56
2023/08/28 06:28:41;;;;;;;27.83;21.10;;;14.10;99.90;;;;;;5010754;28;20434;-55
2023/08/28 06:31:06;;;;;;;29.75;21.17;;;14.30;99.90;;;;;;5013095;28;20064;-55
2023/08/28 06:33:32;;;;;;;35.75;23.90;;;14.50;99.90;;;;;;5020621;28;20056;-56
2023/08/28 06:35:58;;;;;;;24.08;19.88;;;14.30;99.90;;;;;;5022291;28;20137;-57
2023/08/28 06:38:23;;;;;;;25.17;18.52;;;14.30;99.90;;;;;;5012781;28;20163;-57
2023/08/28 06:40:50;;;;;;;25.42;17.77;;;14.40;99.90;;;;;;5014830;28;20150;-56
2023/08/28 06:43:16;;;;;;;25.73;17.77;;;14.40;99.90;;;;;;5012089;28;20037;-57
2023/08/28 06:45:42;;;;;;;27.73;18.75;;;14.40;99.90;;;;;;5013186;28;20140;-57
2023/08/28 06:48:08;;;;;;;25.63;17.08;;;14.60;99.90;;;;;;5010417;28;20045;-57
2023/08/28 06:50:34;;;;;;;21.67;16.95;;;14.50;99.90;;;;;;4989171;28;20049;-57
2023/08/28 06:53:00;;;;;;;25.50;16.95;;;14.40;99.90;;;;;;5018910;28;20041;-58
2023/08/28 06:55:27;;;;;;;25.65;17.65;;;14.30;99.90;;;;;;5017103;28;20040;-56
2023/08/28 06:57:53;;;;;;;24.60;16.88;;;14.30;99.90;;;;;;5018800;28;20823;-57
2023/08/28 07:00:19;;;;;;;23.67;17.40;;;14.50;99.90;;;;;;5002567;28;20507;-57
2023/08/28 07:02:44;;;;;;;25.65;18.88;;;14.70;99.90;;;;;;5011119;28;20041;-57
2023/08/28 07:05:10;;;;;;;29.10;18.92;;;14.90;99.90;;;;;;5015281;28;20410;-57
2023/08/28 07:07:36;;;;;;;29.00;19.52;;;15.10;99.90;;;;;;5011271;28;20178;-56
2023/08/28 07:10:01;;;;;;;24.02;18.05;;;15.10;99.90;;;;;;5018484;28;20131;-55
2023/08/28 07:12:27;;;;;;;23.13;16.98;;;15.10;99.90;;;;;;5017909;28;20025;-57
2023/08/28 07:15:12;;;;;;;30.45;17.95;;;14.90;99.90;;;;;;5013869;28;20275;-55
2023/08/28 07:17:37;;;;;;;28.23;19.70;;;15.50;99.90;;;;;;5013156;28;20061;-56
2023/08/28 07:20:04;;;;;;;30.52;19.58;;;15.20;99.90;;;;;;5015141;28;20500;-57
2023/08/28 07:22:30;;;;;;;27.80;19.10;;;15.20;99.90;;;;;;5013473;28;20037;-57
2023/08/28 07:24:56;;;;;;;27.10;19.33;;;15.30;99.90;;;;;;5014937;28;20025;-56
2023/08/28 07:27:22;;;;;;;24.23;17.60;;;15.70;99.90;;;;;;5018300;28;20179;-56
2023/08/28 07:29:47;;;;;;;24.77;17.48;;;15.50;99.90;;;;;;5010247;28;20351;-57
2023/08/28 07:32:13;;;;;;;25.85;17.92;;;15.50;99.90;;;;;;4994570;28;20037;-57
2023/08/28 07:34:38;;;;;;;24.77;17.88;;;15.60;99.90;;;;;;4999092;28;20044;-56
2023/08/28 07:37:05;;;;;;;27.27;17.52;;;15.80;99.90;;;;;;5015490;28;20030;-58
2023/08/28 07:39:30;;;;;;;27.83;18.60;;;15.80;99.90;;;;;;5018929;28;20037;-56
2023/08/28 07:41:59;;;;;;;24.63;17.33;;;16.10;99.90;;;;;;5018726;28;20049;-58
2023/08/28 07:44:24;;;;;;;34.53;22.33;;;16.20;99.90;;;;;;5016301;28;20029;-58
2023/08/28 07:46:50;;;;;;;31.55;19.23;;;16.20;99.90;;;;;;5020951;28;20053;-57
2023/08/28 07:49:16;;;;;;;28.00;18.88;;;16.30;99.90;;;;;;5022404;28;20125;-55
2023/08/28 07:51:41;;;;;;;29.35;19.75;;;16.40;99.90;;;;;;4990691;28;20061;-55
2023/08/28 07:54:08;;;;;;;39.15;24.77;;;16.40;99.90;;;;;;5011505;28;20041;-57
2023/08/28 07:56:33;;;;;;;23.08;15.75;;;16.30;99.90;;;;;;5015537;28;20036;-55
2023/08/28 07:58:59;;;;;;;27.15;18.25;;;16.70;99.90;;;;;;5017048;28;20037;-57
2023/08/28 08:01:24;;;;;;;25.38;15.48;;;16.60;99.90;;;;;;5009934;28;20030;-57
2023/08/28 08:03:50;;;;;;;26.27;16.08;;;16.60;99.90;;;;;;5017406;28;20084;-57
2023/08/28 08:06:17;;;;;;;22.98;16.25;;;16.50;99.90;;;;;;5013275;28;20030;-57
2023/08/28 08:08:45;;;;;;;23.80;15.77;;;16.60;99.90;;;;;;5017128;28;20034;-57
2023/08/28 08:11:11;;;;;;;22.58;16.52;;;16.60;99.90;;;;;;5017718;28;20025;-57
2023/08/28 08:13:37;;;;;;;18.13;13.73;;;16.70;99.90;;;;;;5014154;28;20044;-57
2023/08/28 08:16:04;;;;;;;20.40;12.77;;;16.50;99.90;;;;;;5016975;28;20037;-56
2023/08/28 08:18:30;;;;;;;21.98;13.90;;;16.60;99.90;;;;;;5018194;28;20331;-57
2023/08/28 08:20:56;;;;;;;20.45;13.80;;;16.80;99.90;;;;;;5021096;28;20448;-57
2023/08/28 08:23:21;;;;;;;23.48;14.35;;;16.90;99.90;;;;;;5020827;28;20079;-57
2023/08/28 08:25:47;;;;;;;22.95;13.48;;;16.90;99.90;;;;;;5019498;28;20068;-56
2023/08/28 08:28:14;;;;;;;20.55;12.43;;;16.90;99.90;;;;;;5019172;28;20113;-57
2023/08/28 08:30:40;;;;;;;20.60;13.68;;;17.20;99.90;;;;;;5016796;28;20433;-57
2023/08/28 08:33:05;;;;;;;20.60;13.38;;;17.00;99.90;;;;;;5011692;28;20433;-57
2023/08/28 08:35:31;;;;;;;19.65;12.90;;;17.20;99.90;;;;;;5021295;28;20124;-57
2023/08/28 08:37:57;;;;;;;16.90;11.13;;;17.30;99.90;;;;;;5021818;28;20037;-57
2023/08/28 08:40:26;;;;;;;16.58;11.57;;;17.40;99.90;;;;;;5017195;28;20049;-57
2023/08/28 08:42:55;;;;;;;17.63;12.73;;;17.60;99.90;;;;;;4997280;28;20047;-57
2023/08/28 08:45:41;;;;;;;20.30;10.63;;;17.50;99.90;;;;;;5019066;28;20112;-57
2023/08/28 08:48:08;;;;;;;18.30;12.00;;;17.50;99.90;;;;;;4983150;28;20521;-58
2023/08/28 08:50:37;;;;;;;19.13;11.38;;;17.60;99.90;;;;;;5018818;28;20088;-57
2023/08/28 08:53:09;;;;;;;15.52;10.77;;;17.60;99.90;;;;;;5015520;28;20025;-56
2023/08/28 08:55:48;;;;;;;16.58;9.88;;;17.70;99.90;;;;;;5020614;28;20037;-56
2023/08/28 08:58:16;;;;;;;14.80;10.25;;;17.70;99.90;;;;;;5011548;28;20145;-57
2023/08/28 09:00:45;;;;;;;12.82;9.10;;;17.60;99.90;;;;;;5010946;28;20135;-56
2023/08/28 09:03:12;;;;;;;13.93;9.95;;;17.60;99.90;;;;;;5015458;28;20367;-57
2023/08/28 09:05:39;;;;;;;13.00;9.02;;;17.70;99.90;;;;;;5013155;28;20500;-57
2023/08/28 09:08:06;;;;;;;20.95;9.38;;;17.70;99.90;;;;;;5017874;28;20040;-57
2023/08/28 09:10:33;;;;;;;17.40;10.40;;;17.70;99.90;;;;;;5018626;28;20034;-57
2023/08/28 09:12:58;;;;;;;17.05;9.13;;;17.80;99.90;;;;;;5020759;28;20033;-57
2023/08/28 09:15:25;;;;;;;16.70;8.80;;;17.90;99.90;;;;;;5008748;28;20390;-58
2023/08/28 09:17:51;;;;;;;14.18;8.55;;;17.90;99.90;;;;;;5011986;28;20064;-58
2023/08/28 09:20:18;;;;;;;14.77;7.63;;;18.10;99.90;;;;;;5003948;28;20120;-56
2023/08/28 09:22:51;;;;;;;10.38;6.35;;;18.40;99.90;;;;;;5008836;28;20072;-57
2023/08/28 09:25:18;;;;;;;9.93;4.70;;;18.30;99.90;;;;;;5025746;28;20116;-56
2023/08/28 09:27:45;;;;;;;9.50;6.43;;;18.20;99.90;;;;;;5020325;28;20087;-57
2023/08/28 09:30:37;;;;;;;10.00;6.28;;;18.10;99.90;;;;;;5019968;28;20397;-58
2023/08/28 09:33:06;;;;;;;10.23;5.88;;;18.30;99.90;;;;;;5016821;28;20038;-57
2023/08/28 09:35:39;;;;;;;9.73;4.30;;;18.60;99.90;;;;;;5021295;28;20052;-57
2023/08/28 09:38:05;;;;;;;6.43;3.65;;;18.80;99.90;;;;;;5013092;28;20080;-58
2023/08/28 09:40:33;;;;;;;6.13;4.72;;;19.00;99.90;;;;;;5020902;28;20045;-58
2023/08/28 09:42:59;;;;;;;9.20;4.43;;;19.00;99.90;;;;;;5017475;28;20026;-57
2023/08/28 09:45:32;;;;;;;9.80;6.55;;;19.00;99.90;;;;;;5016169;28;20493;-56
2023/08/28 09:47:57;;;;;;;10.85;6.55;;;18.90;99.90;;;;;;5017977;28;20034;-58
2023/08/28 09:50:34;;;;;;;12.27;6.65;;;19.20;99.90;;;;;;5013607;28;20046;-57
2023/08/28 09:53:13;;;;;;;9.63;5.88;;;19.10;99.90;;;;;;5006990;28;20061;-57
2023/08/28 09:55:52;;;;;;;10.93;5.22;;;19.30;99.90;;;;;;5011579;28;20525;-58
2023/08/28 09:58:19;;;;;;;8.65;5.70;;;19.40;99.90;;;;;;5014687;28;20489;-57
2023/08/28 10:00:45;;;;;;;10.20;5.63;;;19.30;99.90;;;;;;4994005;28;20084;-57
2023/08/28 10:03:12;;;;;;;9.45;5.57;;;19.30;99.90;;;;;;4998534;28;20041;-57
2023/08/28 10:05:45;;;;;;;8.88;4.90;;;19.30;99.90;;;;;;5013776;28;20509;-57
2023/08/28 10:08:15;;;;;;;12.15;5.00;;;18.90;99.90;;;;;;5014607;28;20037;-57
2023/08/28 10:10:47;;;;;;;10.15;5.60;;;18.90;99.90;;;;;;5022639;28;20034;-57
2023/08/28 10:13:19;;;;;;;14.60;7.65;;;19.10;99.90;;;;;;5014476;28;20491;-57
2023/08/28 10:16:01;;;;;;;13.15;5.90;;;19.40;99.90;;;;;;5019061;28;20034;-58
2023/08/28 10:18:38;;;;;;;5.03;3.10;;;19.30;99.90;;;;;;5010995;28;20056;-58
2023/08/28 10:21:06;;;;;;;8.82;3.30;;;18.90;99.90;;;;;;5015671;28;20097;-57
2023/08/28 10:23:33;;;;;;;8.98;4.90;;;19.10;99.90;;;;;;5019600;28;20029;-56
2023/08/28 10:26:01;;;;;;;7.18;3.80;;;19.10;99.90;;;;;;5019245;28;20527;-57
2023/08/28 10:28:28;;;;;;;7.97;3.85;;;19.30;99.90;;;;;;5019990;28;20430;-58
2023/08/28 10:30:54;;;;;;;5.65;3.70;;;19.20;99.90;;;;;;5022921;28;20034;-56
2023/08/28 10:33:21;;;;;;;8.38;4.43;;;19.20;99.90;;;;;;5021696;28;20029;-57
2023/08/28 10:35:53;;;;;;;7.82;5.07;;;19.30;99.90;;;;;;5023533;28;20037;-57
2023/08/28 10:38:20;;;;;;;9.52;5.53;;;19.30;99.90;;;;;;5016638;28;20519;-57
2023/08/28 10:40:50;;;;;;;9.68;5.18;;;19.30;99.90;;;;;;5023060;28;20475;-56
2023/08/28 10:43:21;;;;;;;8.73;4.45;;;19.60;99.90;;;;;;5019508;28;20104;-58
2023/08/28 10:45:49;;;;;;;6.65;4.32;;;19.30;99.90;;;;;;5018176;28;20076;-56
2023/08/28 10:48:17;;;;;;;4.80;3.67;;;19.40;99.90;;;;;;5021768;28;20326;-57
2023/08/28 10:50:44;;;;;;;6.57;3.85;;;19.40;99.90;;;;;;5020715;28;20033;-57
2023/08/28 10:53:14;;;;;;;4.75;3.13;;;19.40;99.90;;;;;;5019358;28;20041;-58
2023/08/28 10:55:51;;;;;;;4.57;2.88;;;19.50;99.90;;;;;;5020511;28;20330;-57
2023/08/28 10:58:17;;;;;;;6.78;2.97;;;19.10;99.90;;;;;;5012758;28;20160;-57
2023/08/28 11:00:42;;;;;;;6.53;3.90;;;19.30;99.90;;;;;;4996748;28;20449;-58
2023/08/28 11:03:10;;;;;;;7.65;4.15;;;19.20;99.90;;;;;;5020122;28;20112;-57
2023/08/28 11:05:38;;;;;;;6.25;4.25;;;19.00;99.90;;;;;;5017503;28;20416;-57
2023/08/28 11:08:09;;;;;;;5.85;3.53;;;19.20;99.90;;;;;;5014671;28;20068;-57
2023/08/28 11:10:44;;;;;;;8.32;3.55;;;19.40;99.90;;;;;;5023042;28;20041;-57
2023/08/28 11:13:18;;;;;;;5.55;3.33;;;19.50;99.90;;;;;;4999985;28;20207;-57
2023/08/28 11:15:44;;;;;;;6.45;3.90;;;19.40;99.90;;;;;;5019190;28;20354;-56
2023/08/28 11:18:26;;;;;;;6.30;3.53;;;19.40;99.90;;;;;;5022523;28;20052;-57
2023/08/28 11:20:54;;;;;;;4.68;3.30;;;19.30;99.90;;;;;;5015877;28;20042;-57
2023/08/28 11:23:34;;;;;;;8.15;3.08;;;19.50;99.90;;;;;;5016732;28;20073;-56
2023/08/28 11:26:07;;;;;;;4.85;3.40;;;19.70;99.90;;;;;;5021599;28;20489;-58
2023/08/28 11:28:49;;;;;;;4.70;2.65;;;19.70;99.90;;;;;;5018432;28;20113;-58
2023/08/28 11:31:16;;;;;;;3.58;2.75;;;19.90;99.90;;;;;;5017675;28;20374;-57
2023/08/28 11:33:45;;;;;;;4.70;2.45;;;19.90;99.90;;;;;;5017464;28;20355;-56
2023/08/28 11:36:18;;;;;;;3.75;2.67;;;19.70;99.90;;;;;;4997812;28;20057;-57
2023/08/28 11:38:48;;;;;;;4.25;2.40;;;20.00;99.90;;;;;;5018473;28;20458;-57
2023/08/28 11:41:14;;;;;;;3.35;2.30;;;20.10;99.90;;;;;;5020746;28;20026;-57
2023/08/28 11:43:42;;;;;;;6.80;2.70;;;20.40;99.90;;;;;;5019946;28;20468;-57
2023/08/28 11:46:09;;;;;;;4.50;2.50;;;19.90;99.90;;;;;;5003152;28;20129;-57
2023/08/28 11:48:48;;;;;;;7.25;2.70;;;20.40;99.90;;;;;;5019385;28;20022;-58
2023/08/28 11:51:14;;;;;;;8.32;4.70;;;20.60;99.90;;;;;;5008841;28;20038;-56
2023/08/28 11:53:41;;;;;;;7.72;2.90;;;20.60;99.90;;;;;;5009397;28;20141;-57
2023/08/28 11:56:11;;;;;;;5.10;2.67;;;20.80;99.90;;;;;;5018333;28;20049;-56
2023/08/28 11:58:40;;;;;;;4.28;2.65;;;20.60;99.90;;;;;;5016406;28;20068;-56
2023/08/28 12:01:12;;;;;;;3.75;3.20;;;20.30;99.90;;;;;;5018461;28;20079;-57
2023/08/28 12:03:39;;;;;;;6.55;3.13;;;20.30;99.90;;;;;;5021213;28;20117;-57
2023/08/28 12:06:07;;;;;;;3.92;2.70;;;20.30;99.90;;;;;;5020344;28;20037;-57
2023/08/28 12:08:35;;;;;;;4.32;2.70;;;20.30;99.90;;;;;;5015645;28;20468;-56
2023/08/28 12:11:01;;;;;;;2.60;2.33;;;19.90;99.90;;;;;;5016623;28;20053;-57
2023/08/28 12:13:26;;;;;;;5.82;2.70;;;20.10;99.90;;;;;;5018071;28;20456;-57
2023/08/28 12:16:05;;;;;;;5.15;2.40;;;20.50;99.90;;;;;;5021575;28;20037;-56
2023/08/28 12:18:45;;;;;;;5.05;2.55;;;20.60;99.90;;;;;;5020092;28;20034;-55
2023/08/28 12:21:11;;;;;;;5.78;2.72;;;20.70;99.90;;;;;;5020652;28;20048;-56
2023/08/28 12:23:56;;;;;;;4.20;2.50;;;20.70;99.90;;;;;;5015693;28;20029;-57
2023/08/28 12:26:26;;;;;;;6.10;2.65;;;21.00;99.90;;;;;;5017672;28;20064;-56
2023/08/28 12:28:52;;;;;;;6.95;2.85;;;20.90;99.90;;;;;;5019671;28;20030;-56
2023/08/28 12:31:32;;;;;;;5.63;2.20;;;20.80;99.90;;;;;;5021825;28;20515;-56
2023/08/28 12:34:05;;;;;;;5.88;2.72;;;21.00;99.90;;;;;;5002679;28;20674;-56
2023/08/28 12:36:35;;;;;;;;;;;20.80;99.90;;;;;;5011106;28;20064;-57
2023/08/28 12:39:00;;;;;;;4.57;2.90;;;20.60;99.90;;;;;;5021027;28;19912;-57